Time;durP1;ratioP1;P1;durP2;ratioP2;P2;SDS_P1;SDS_P2;PMS_P1;PMS_P2;Temp;Humidity;BMP_temperature;BMP_pressure;BME280_temperature;BME280_humidity;BME280_pressure;Samples;Min_cycle;Max_cycle;Signal;HPM_P1;HPM_P2
2022/11/16 00:00:02;;;;;;;10.48;7.97;;;11.60;99.90;;;;;;5032512;28;20033;-87
2022/11/16 00:02:27;;;;;;;11.68;9.40;;;11.60;99.90;;;;;;5032782;28;20017;-87
2022/11/16 00:04:58;;;;;;;11.63;9.38;;;11.60;99.90;;;;;;5034932;28;20029;-86
2022/11/16 00:07:27;;;;;;;11.20;8.13;;;11.60;99.90;;;;;;5029544;28;20091;-88
2022/11/16 00:09:52;;;;;;;10.40;8.10;;;11.60;99.90;;;;;;5032858;28;20114;-88
2022/11/16 00:12:21;;;;;;;9.48;8.35;;;11.60;99.90;;;;;;5015036;28;20323;-88
2022/11/16 00:14:46;;;;;;;11.77;9.05;;;11.60;99.90;;;;;;5032274;28;20025;-89
2022/11/16 00:17:13;;;;;;;11.43;9.30;;;11.60;99.90;;;;;;5034294;28;20025;-87
2022/11/16 00:19:39;;;;;;;12.32;9.32;;;11.60;99.90;;;;;;5016542;28;20170;-89
2022/11/16 00:22:05;;;;;;;10.85;8.48;;;11.60;99.90;;;;;;5013463;28;20112;-87
2022/11/16 00:24:30;;;;;;;11.55;8.98;;;11.60;99.90;;;;;;5035346;28;20099;-88
2022/11/16 00:26:57;;;;;;;15.75;12.13;;;11.60;99.90;;;;;;5035657;28;20052;-88
2022/11/16 00:29:25;;;;;;;12.45;10.52;;;11.60;99.90;;;;;;5032120;28;20030;-89
2022/11/16 00:31:52;;;;;;;13.13;10.02;;;11.60;99.90;;;;;;5008995;28;20386;-87
2022/11/16 00:34:19;;;;;;;12.40;10.07;;;11.60;99.90;;;;;;5002897;28;20018;-90
2022/11/16 00:36:45;;;;;;;12.95;10.23;;;11.60;99.90;;;;;;5026848;28;20494;-90
2022/11/16 00:39:12;;;;;;;13.98;11.35;;;11.60;99.90;;;;;;5001374;28;20049;-89
2022/11/16 00:41:38;;;;;;;12.85;10.55;;;11.60;99.90;;;;;;5027471;28;20026;-88
2022/11/16 00:44:04;;;;;;;17.52;13.73;;;11.60;99.90;;;;;;5021381;28;20038;-91
2022/11/16 00:46:30;;;;;;;15.98;12.90;;;11.60;99.90;;;;;;5033790;28;20473;-88
2022/11/16 00:48:55;;;;;;;16.67;13.43;;;11.60;99.90;;;;;;5005151;28;20034;-88
2022/11/16 00:51:21;;;;;;;15.02;11.98;;;11.60;99.90;;;;;;4999106;28;20120;-89
2022/11/16 00:53:47;;;;;;;14.10;11.95;;;11.60;99.90;;;;;;5020248;28;20026;-89
2022/11/16 00:56:12;;;;;;;15.25;12.23;;;11.60;99.90;;;;;;4992863;28;20053;-88
2022/11/16 00:58:38;;;;;;;15.73;11.82;;;11.60;99.90;;;;;;5030865;28;20493;-87
2022/11/16 01:01:05;;;;;;;14.93;11.20;;;11.60;99.90;;;;;;5005593;28;20030;-90
2022/11/16 01:03:32;;;;;;;12.75;10.55;;;11.60;99.90;;;;;;5004636;28;20026;-88
2022/11/16 01:06:06;;;;;;;13.55;10.15;;;11.60;99.90;;;;;;4997787;28;20022;-90
2022/11/16 01:08:37;;;;;;;13.68;11.02;;;11.60;99.90;;;;;;4998681;28;20048;-89
2022/11/16 01:13:49;;;;;;;16.15;13.02;;;11.60;99.90;;;;;;5017188;28;20164;-89
2022/11/16 01:16:19;;;;;;;16.80;13.00;;;11.60;99.90;;;;;;4997918;28;20038;-87
2022/11/16 01:18:52;;;;;;;17.92;14.65;;;11.60;99.90;;;;;;5016986;28;20041;-88
2022/11/16 01:21:26;;;;;;;15.27;12.80;;;11.60;99.90;;;;;;5034736;28;20017;-89
2022/11/16 01:24:02;;;;;;;15.05;12.55;;;11.60;99.90;;;;;;5032176;28;20049;-88
2022/11/16 01:26:27;;;;;;;16.10;12.93;;;11.60;99.90;;;;;;5018410;28;20034;-87
2022/11/16 01:28:53;;;;;;;16.50;12.88;;;11.60;99.90;;;;;;5016712;28;20029;-87
2022/11/16 01:31:21;;;;;;;18.48;13.73;;;11.60;99.90;;;;;;5003770;28;20181;-87
2022/11/16 01:33:47;;;;;;;17.75;14.77;;;11.60;99.90;;;;;;5007906;28;20034;-88
2022/11/16 01:36:13;;;;;;;17.83;14.15;;;11.60;99.90;;;;;;5012700;28;20024;-87
2022/11/16 01:38:41;;;;;;;15.48;13.32;;;11.60;99.90;;;;;;5017274;28;20064;-89
2022/11/16 01:41:07;;;;;;;17.38;14.13;;;11.60;99.90;;;;;;5002237;28;20464;-88
2022/11/16 01:43:55;;;;;;;18.52;13.55;;;11.60;99.90;;;;;;4998315;28;20462;-87
2022/11/16 01:46:39;;;;;;;;;;;;;;;;;;;;;
2022/11/16 01:49:14;;;;;;;16.02;13.02;;;11.60;99.90;;;;;;5028550;28;20031;-89
2022/11/16 01:51:52;;;;;;;14.38;12.40;;;11.60;99.90;;;;;;5025070;28;20030;-89
2022/11/16 01:54:18;;;;;;;13.18;11.05;;;11.60;99.90;;;;;;4998877;28;20058;-89
2022/11/16 01:56:49;;;;;;;13.00;10.20;;;11.60;99.90;;;;;;5026229;28;20437;-87
2022/11/16 01:59:16;;;;;;;16.73;13.65;;;11.60;99.90;;;;;;5002945;28;20060;-88
2022/11/16 02:01:42;;;;;;;14.20;11.75;;;11.60;99.90;;;;;;5015578;28;20025;-89
2022/11/16 02:04:12;;;;;;;13.60;10.77;;;11.60;99.90;;;;;;5032775;28;20132;-89
2022/11/16 02:06:40;;;;;;;14.38;11.82;;;11.60;99.90;;;;;;5015916;28;20033;-87
2022/11/16 02:12:28;;;;;;;16.75;12.88;;;11.50;99.90;;;;;;5033760;28;20119;-87
2022/11/16 02:15:19;;;;;;;16.73;12.88;;;11.50;99.90;;;;;;5033360;28;20033;-88
2022/11/16 02:18:04;;;;;;;16.77;13.52;;;11.60;99.90;;;;;;5009452;28;20054;-88
2022/11/16 02:20:56;;;;;;;14.07;11.70;;;11.50;99.90;;;;;;4984213;28;20025;-88
2022/11/16 02:23:30;;;;;;;13.43;11.02;;;11.60;99.90;;;;;;4992169;28;20397;-90
2022/11/16 02:26:33;;;;;;;12.70;11.05;;;11.50;99.90;;;;;;5006372;28;20072;-90
2022/11/16 02:29:10;;;;;;;13.15;10.35;;;11.60;99.90;;;;;;4987518;28;20022;-87
2022/11/16 02:31:41;;;;;;;10.90;8.80;;;11.50;99.90;;;;;;5008350;28;20040;-89
2022/11/16 02:34:10;;;;;;;11.57;9.35;;;11.50;99.90;;;;;;4989215;28;20025;-88
2022/11/16 02:36:38;;;;;;;11.30;8.95;;;11.50;99.90;;;;;;4976810;28;20018;-87
2022/11/16 02:39:10;;;;;;;10.32;8.45;;;11.50;99.90;;;;;;5003281;28;20030;-87
2022/11/16 02:41:39;;;;;;;12.38;9.80;;;11.50;99.90;;;;;;5002246;28;20021;-87
2022/11/16 02:44:19;;;;;;;13.15;10.18;;;11.50;99.90;;;;;;5001126;28;20027;-86
2022/11/16 02:46:48;;;;;;;11.27;9.38;;;11.50;99.90;;;;;;5013779;28;20381;-87
2022/11/16 02:49:18;;;;;;;15.30;12.23;;;11.50;99.90;;;;;;4996106;28;20018;-87
2022/11/16 02:51:46;;;;;;;13.27;10.85;;;11.50;99.90;;;;;;5013262;28;20378;-87
2022/11/16 02:54:17;;;;;;;13.80;11.07;;;11.50;99.90;;;;;;4991772;28;20085;-87
2022/11/16 02:56:53;;;;;;;13.55;10.63;;;11.50;99.90;;;;;;4976907;28;20034;-87
2022/11/16 02:59:21;;;;;;;14.57;12.35;;;11.50;99.90;;;;;;5000554;28;20501;-87
2022/11/16 03:01:58;;;;;;;13.98;11.55;;;11.50;99.90;;;;;;4999498;28;20109;-89
2022/11/16 03:04:32;;;;;;;14.95;11.40;;;11.50;99.90;;;;;;5005677;28;20080;-88
2022/11/16 03:07:02;;;;;;;15.20;13.32;;;11.50;99.90;;;;;;4979568;28;20034;-87
2022/11/16 03:09:31;;;;;;;16.52;13.75;;;11.50;99.90;;;;;;5003373;28;20050;-88
2022/11/16 03:12:01;;;;;;;17.65;13.75;;;11.50;99.90;;;;;;4989390;28;20018;-88
2022/11/16 03:14:48;;;;;;;15.57;13.40;;;11.50;99.90;;;;;;4986632;28;20022;-88
2022/11/16 03:17:20;;;;;;;17.05;13.98;;;11.50;99.90;;;;;;4997827;28;20076;-88
2022/11/16 03:20:09;;;;;;;19.63;16.77;;;11.50;99.90;;;;;;5015067;28;20029;-89
2022/11/16 03:22:48;;;;;;;17.05;14.68;;;11.50;99.90;;;;;;5033284;28;20112;-90
2022/11/16 03:25:17;;;;;;;17.33;14.48;;;11.50;99.90;;;;;;5032765;28;20025;-89
2022/11/16 03:27:57;;;;;;;16.13;12.27;;;11.50;99.90;;;;;;5002401;28;20022;-90
2022/11/16 03:30:25;;;;;;;15.93;13.65;;;11.60;99.90;;;;;;5022320;28;20026;-89
2022/11/16 03:33:24;;;;;;;16.05;12.10;;;11.60;99.90;;;;;;5002298;28;20037;-89
2022/11/16 03:36:10;;;;;;;13.82;12.20;;;11.60;99.90;;;;;;5002139;28;20040;-89
2022/11/16 03:38:38;;;;;;;15.02;12.40;;;11.60;99.90;;;;;;5023594;28;20033;-89
2022/11/16 03:41:07;;;;;;;14.85;11.80;;;11.60;99.90;;;;;;5030245;28;20117;-89
2022/11/16 03:43:34;;;;;;;14.02;11.23;;;11.60;99.90;;;;;;5015494;28;20032;-89
2022/11/16 03:46:00;;;;;;;13.73;11.00;;;11.60;99.90;;;;;;5013549;28;20037;-89
2022/11/16 03:48:36;;;;;;;13.27;10.40;;;11.60;99.90;;;;;;5008980;28;20049;-91
2022/11/16 03:51:03;;;;;;;12.68;11.00;;;11.70;99.90;;;;;;5022975;28;20021;-89
2022/11/16 03:53:28;;;;;;;16.45;10.68;;;11.70;99.90;;;;;;5020506;28;20140;-90
2022/11/16 03:55:54;;;;;;;14.35;11.10;;;11.70;99.90;;;;;;5044487;28;20025;-89
2022/11/16 03:58:20;;;;;;;11.43;9.70;;;11.70;99.90;;;;;;5015312;28;20022;-90
2022/11/16 04:00:45;;;;;;;13.95;10.85;;;11.70;99.90;;;;;;5002466;28;20021;-91
2022/11/16 04:03:11;;;;;;;11.88;9.75;;;11.70;99.90;;;;;;5011947;28;20037;-92
2022/11/16 04:25:17;;;;;;;10.40;8.80;;;11.70;99.90;;;;;;5014150;28;20037;-90
2022/11/16 04:37:47;;;;;;;9.82;8.77;;;11.70;99.90;;;;;;5037071;28;20111;-90
2022/11/16 04:38:41;;;;;;;10.48;8.05;;;11.60;99.90;;;;;;5036128;28;20180;-91
2022/11/16 04:42:13;;;;;;;9.90;7.97;;;11.60;99.90;;;;;;5001612;28;20108;-92
2022/11/16 04:43:53;;;;;;;9.18;8.00;;;11.60;99.90;;;;;;5017113;28;20084;-90
2022/11/16 04:49:03;;;;;;;8.18;7.00;;;11.60;99.90;;;;;;5021125;28;20491;-90
2022/11/16 04:51:28;;;;;;;7.85;6.38;;;11.60;99.90;;;;;;5008630;28;20116;-89
2022/11/16 04:53:54;;;;;;;8.30;6.28;;;11.60;99.90;;;;;;5003179;28;20025;-90
2022/11/16 04:56:19;;;;;;;5.65;5.03;;;11.60;99.90;;;;;;5019432;28;20165;-89
2022/11/16 04:58:45;;;;;;;5.93;4.50;;;11.50;99.90;;;;;;5014502;28;20041;-89
2022/11/16 05:01:11;;;;;;;4.47;3.70;;;11.50;99.90;;;;;;5017698;28;20022;-89
2022/11/16 05:18:16;;;;;;;;;;;;;;;;;;;;;
2022/11/16 05:21:00;;;;;;;4.68;3.25;;;11.20;99.90;;;;;;4888240;29;20434;-90
2022/11/16 05:26:10;;;;;;;5.07;3.50;;;11.20;99.90;;;;;;5035366;28;20016;-90
2022/11/16 05:28:35;;;;;;;4.25;3.22;;;11.20;99.90;;;;;;5017814;28;20121;-89
2022/11/16 05:31:01;;;;;;;6.18;3.35;;;11.10;99.90;;;;;;5014718;28;20107;-89
2022/11/16 05:33:26;;;;;;;4.90;3.25;;;11.10;99.90;;;;;;5007034;28;20588;-89
2022/11/16 05:35:52;;;;;;;5.10;3.38;;;11.10;99.90;;;;;;5004302;28;20049;-89
2022/11/16 05:38:19;;;;;;;4.43;3.25;;;11.10;99.90;;;;;;5034574;28;20032;-88
2022/11/16 05:40:44;;;;;;;5.60;3.53;;;11.10;99.90;;;;;;4986287;28;20033;-89
2022/11/16 05:43:10;;;;;;;5.70;4.35;;;11.10;99.90;;;;;;5007166;28;20529;-88
2022/11/16 05:45:36;;;;;;;6.40;4.28;;;11.10;99.90;;;;;;5010492;28;20097;-89
2022/11/16 05:48:05;;;;;;;7.22;5.40;;;11.10;99.90;;;;;;4998313;28;20124;-89
2022/11/16 05:50:31;;;;;;;7.57;5.90;;;11.20;99.90;;;;;;5030341;28;20025;-89
2022/11/16 05:52:56;;;;;;;8.10;6.00;;;11.20;99.90;;;;;;5032659;28;20021;-90
2022/11/16 05:55:22;;;;;;;8.43;6.30;;;11.20;99.90;;;;;;5018547;28;20499;-88
2022/11/16 05:57:47;;;;;;;10.20;9.05;;;11.20;99.90;;;;;;5021035;28;20037;-87
2022/11/16 06:00:14;;;;;;;8.85;7.55;;;11.20;99.90;;;;;;5011531;28;20022;-89
2022/11/16 06:02:39;;;;;;;9.73;7.45;;;11.20;99.90;;;;;;5014856;28;20470;-89
2022/11/16 06:05:05;;;;;;;10.15;7.40;;;11.20;99.90;;;;;;5015607;28;20071;-88
2022/11/16 06:07:31;;;;;;;9.20;7.18;;;11.20;99.90;;;;;;5002503;28;20057;-88
2022/11/16 06:09:59;;;;;;;8.00;6.10;;;11.20;99.90;;;;;;5005182;28;20025;-89
2022/11/16 06:12:24;;;;;;;8.85;6.22;;;11.10;99.90;;;;;;5003560;28;20384;-89
2022/11/16 06:14:53;;;;;;;7.30;5.32;;;11.00;99.90;;;;;;5030206;28;20033;-88
2022/11/16 06:17:24;;;;;;;8.50;4.88;;;11.00;99.90;;;;;;5003377;28;20033;-88
2022/11/16 06:19:50;;;;;;;7.47;3.97;;;10.90;99.90;;;;;;5018962;28;20073;-89
2022/11/16 06:22:15;;;;;;;6.38;4.30;;;10.80;99.90;;;;;;5015722;28;20018;-88
2022/11/16 06:24:41;;;;;;;5.10;3.55;;;10.80;99.90;;;;;;5021997;28;20021;-88
2022/11/16 06:27:10;;;;;;;4.22;3.08;;;10.70;99.90;;;;;;5024630;28;20501;-88
2022/11/16 06:29:35;;;;;;;5.43;2.80;;;10.70;99.90;;;;;;5023803;28;20026;-89
2022/11/16 06:32:02;;;;;;;6.25;3.45;;;10.60;99.90;;;;;;5020379;28;20033;-86
2022/11/16 06:34:30;;;;;;;4.15;2.72;;;10.50;99.90;;;;;;5015665;28;20041;-88
2022/11/16 06:36:57;;;;;;;6.00;2.80;;;10.50;99.90;;;;;;5018094;28;20038;-88
2022/11/16 06:39:23;;;;;;;4.45;2.70;;;10.40;99.90;;;;;;5030206;28;20025;-88
2022/11/16 06:41:49;;;;;;;4.70;2.80;;;10.30;99.90;;;;;;5033841;28;20037;-88
2022/11/16 06:44:17;;;;;;;4.22;2.65;;;10.30;99.90;;;;;;5028345;28;20026;-88
2022/11/16 06:46:42;;;;;;;3.30;2.13;;;10.20;99.90;;;;;;5023830;28;20018;-89
2022/11/16 06:49:09;;;;;;;3.80;2.25;;;10.20;99.90;;;;;;5023809;28;20033;-89
2022/11/16 06:51:34;;;;;;;2.67;1.55;;;10.10;99.90;;;;;;5017233;28;20022;-88
2022/11/16 06:54:02;;;;;;;2.00;1.50;;;10.00;99.90;;;;;;5034733;28;20628;-88
2022/11/16 06:56:46;;;;;;;2.20;1.40;;;10.00;99.90;;;;;;5028909;28;20026;-88
2022/11/16 06:59:16;;;;;;;3.38;1.80;;;9.90;99.90;;;;;;5033297;28;20029;-87
2022/11/16 07:01:48;;;;;;;2.13;1.58;;;9.90;99.90;;;;;;5022067;28;20056;-89
2022/11/16 07:04:16;;;;;;;3.10;1.58;;;9.80;99.90;;;;;;5028867;28;20061;-87
2022/11/16 07:06:43;;;;;;;2.70;1.40;;;9.80;99.90;;;;;;5031646;28;20116;-88
2022/11/16 07:09:16;;;;;;;5.47;1.77;;;9.80;99.90;;;;;;5032009;28;20037;-88
2022/11/16 07:11:42;;;;;;;3.08;1.70;;;9.70;99.90;;;;;;5014993;28;20029;-88
2022/11/16 07:14:31;;;;;;;3.72;2.53;;;9.80;99.90;;;;;;5031848;28;20029;-88
2022/11/16 07:17:08;;;;;;;3.00;1.67;;;9.70;99.90;;;;;;5015503;28;20121;-88
2022/11/16 07:19:35;;;;;;;3.53;1.85;;;9.60;99.90;;;;;;5011777;28;20074;-87
2022/11/16 07:22:01;;;;;;;3.20;1.65;;;9.60;99.90;;;;;;4989808;28;20411;-87
2022/11/16 07:25:02;;;;;;;3.90;2.00;;;9.60;99.90;;;;;;4961370;28;20061;-88
2022/11/16 07:27:46;;;;;;;3.53;1.80;;;9.60;99.90;;;;;;4995212;28;20030;-88
2022/11/16 07:30:12;;;;;;;3.28;1.90;;;9.50;99.90;;;;;;4988836;28;20500;-87
2022/11/16 07:32:43;;;;;;;4.50;1.90;;;9.50;99.90;;;;;;4987736;28;20475;-88
2022/11/16 07:35:11;;;;;;;4.57;1.75;;;9.50;99.90;;;;;;4995661;28;20057;-87
2022/11/16 07:37:37;;;;;;;4.95;1.85;;;9.50;99.90;;;;;;4991320;28;20034;-88
2022/11/16 07:40:09;;;;;;;4.10;1.98;;;9.50;99.90;;;;;;4986868;28;20022;-87
2022/11/16 07:42:35;;;;;;;3.25;1.90;;;9.50;99.90;;;;;;5012897;28;20022;-87
2022/11/16 07:45:11;;;;;;;4.07;1.83;;;9.50;99.90;;;;;;4985965;28;20440;-87
2022/11/16 07:47:37;;;;;;;4.28;2.10;;;9.50;99.90;;;;;;4990467;28;20084;-87
2022/11/16 07:50:06;;;;;;;4.63;2.47;;;9.50;99.90;;;;;;4988522;28;20025;-87
2022/11/16 07:52:36;;;;;;;5.13;2.50;;;9.60;99.90;;;;;;4989921;28;20034;-87
2022/11/16 07:55:11;;;;;;;5.20;3.00;;;9.60;99.90;;;;;;4988314;28;20026;-87
2022/11/16 07:57:37;;;;;;;6.40;3.00;;;9.60;99.90;;;;;;4982505;28;20025;-87
2022/11/16 08:00:04;;;;;;;6.38;3.30;;;9.60;99.90;;;;;;4982761;28;20355;-88
2022/11/16 08:02:30;;;;;;;9.95;3.97;;;9.60;99.90;;;;;;5015671;28;20477;-87
2022/11/16 08:04:56;;;;;;;7.03;4.18;;;9.70;99.90;;;;;;4986569;28;20081;-88
2022/11/16 08:07:24;;;;;;;8.88;4.47;;;9.70;99.90;;;;;;4992459;28;20093;-87
2022/11/16 08:09:53;;;;;;;9.30;4.15;;;9.70;99.90;;;;;;4992669;28;20030;-88
2022/11/16 08:15:19;;;;;;;7.65;3.85;;;9.70;99.90;;;;;;5009972;28;20038;-86
2022/11/16 08:17:45;;;;;;;7.63;4.10;;;9.80;99.90;;;;;;4979755;28;20080;-87
2022/11/16 08:20:14;;;;;;;7.45;4.10;;;9.80;99.90;;;;;;5023332;28;20054;-87
2022/11/16 08:22:40;;;;;;;7.85;4.07;;;9.90;99.90;;;;;;5016558;28;20049;-87
2022/11/16 08:25:14;;;;;;;6.10;3.97;;;9.90;99.90;;;;;;4999733;28;20028;-86
2022/11/16 08:27:42;;;;;;;8.43;4.55;;;9.90;99.90;;;;;;5012225;28;20026;-89
2022/11/16 08:30:20;;;;;;;8.38;4.05;;;10.00;99.90;;;;;;5018144;28;20023;-86
2022/11/16 08:32:52;;;;;;;6.88;3.97;;;10.00;99.90;;;;;;5002997;28;20108;-86
2022/11/16 08:35:26;;;;;;;6.53;3.80;;;10.10;99.90;;;;;;4999094;28;20076;-86
2022/11/16 08:37:52;;;;;;;5.97;4.00;;;10.10;99.90;;;;;;5011827;28;20026;-86
2022/11/16 08:40:48;;;;;;;;;;;;;;;;;;;;;
2022/11/16 08:43:19;;;;;;;5.97;3.65;;;10.30;99.90;;;;;;5006801;28;20504;-86
2022/11/16 08:46:20;;;;;;;8.20;4.72;;;10.50;99.90;;;;;;5011730;28;20033;-86
2022/11/16 08:48:46;;;;;;;7.72;4.15;;;10.80;99.90;;;;;;4961241;28;20066;-86
2022/11/16 08:51:19;;;;;;;8.63;5.07;;;11.20;99.90;;;;;;4954997;28;20509;-87
2022/11/16 08:53:48;;;;;;;9.05;5.50;;;11.90;99.90;;;;;;4968240;28;20034;-86
2022/11/16 08:56:14;;;;;;;10.43;4.40;;;12.60;99.90;;;;;;4970948;28;20472;-87
2022/11/16 08:58:42;;;;;;;10.65;4.60;;;13.40;99.90;;;;;;5011205;28;20018;-86
2022/11/16 09:01:28;;;;;;;5.75;3.13;;;14.10;99.90;;;;;;5017278;28;20032;-86
2022/11/16 09:04:17;;;;;;;6.18;2.90;;;14.60;99.90;;;;;;5004878;28;20041;-86
2022/11/16 09:06:54;;;;;;;5.25;2.10;;;15.40;99.90;;;;;;5020795;28;20112;-86
2022/11/16 09:09:21;;;;;;;6.45;2.30;;;15.80;99.90;;;;;;5016984;28;20035;-85
2022/11/16 09:11:53;;;;;;;4.25;2.05;;;16.20;99.90;;;;;;5016540;28;20083;-86
2022/11/16 09:14:21;;;;;;;4.40;1.98;;;16.40;99.90;;;;;;5013343;28;20030;-85
2022/11/16 09:17:09;;;;;;;4.65;1.90;;;16.80;99.90;;;;;;5016809;28;20059;-85
2022/11/16 09:19:35;;;;;;;5.28;1.88;;;17.20;99.90;;;;;;5032519;28;20065;-86
2022/11/16 09:22:00;;;;;;;4.60;1.90;;;17.50;99.90;;;;;;5034872;28;20021;-85
2022/11/16 09:24:26;;;;;;;5.03;1.75;;;17.80;99.90;;;;;;5016748;28;20024;-86
2022/11/16 09:26:55;;;;;;;5.32;1.92;;;17.90;99.90;;;;;;5034978;28;20025;-85
2022/11/16 09:29:21;;;;;;;6.97;1.70;;;17.60;99.90;;;;;;5003911;28;20022;-85
2022/11/16 09:32:01;;;;;;;6.70;1.90;;;17.40;99.90;;;;;;5008388;28;20018;-85
2022/11/16 09:34:27;;;;;;;6.70;1.90;;;17.50;99.90;;;;;;5014593;28;20022;-86
2022/11/16 09:37:07;;;;;;;5.30;1.85;;;17.60;99.90;;;;;;5006523;28;20374;-84
2022/11/16 09:39:40;;;;;;;6.55;2.45;;;17.90;99.90;;;;;;5015765;28;20010;-84
2022/11/16 09:42:50;;;;;;;5.47;2.00;;;18.20;99.90;;;;;;5013761;28;20075;-85
2022/11/16 09:45:44;;;;;;;6.25;1.73;;;18.10;99.90;;;;;;5030501;28;20087;-84
2022/11/16 09:48:13;;;;;;;5.65;1.70;;;18.30;99.90;;;;;;5024969;28;20041;-87
2022/11/16 09:51:00;;;;;;;5.28;1.48;;;18.40;99.90;;;;;;5016209;28;20029;-85
2022/11/16 09:53:45;;;;;;;5.15;1.70;;;18.70;99.90;;;;;;5013429;28;20014;-85
2022/11/16 09:56:17;;;;;;;6.32;1.70;;;18.80;99.90;;;;;;5012771;28;20021;-88
2022/11/16 09:59:05;;;;;;;6.57;1.67;;;18.90;99.90;;;;;;5033852;28;20037;-85
2022/11/16 10:01:49;;;;;;;8.23;1.85;;;19.30;99.90;;;;;;5013453;28;20104;-87
2022/11/16 10:04:24;;;;;;;6.03;1.67;;;19.00;99.90;;;;;;5005564;28;20458;-84
2022/11/16 10:07:21;;;;;;;5.18;1.63;;;18.90;99.90;;;;;;5010579;28;20022;-84
2022/11/16 10:09:50;;;;;;;4.28;1.60;;;19.40;99.90;;;;;;5025025;28;20014;-84
2022/11/16 10:12:50;;;;;;;5.72;1.25;;;19.60;99.90;;;;;;5030144;28;20033;-84
2022/11/16 10:15:28;;;;;;;4.55;1.42;;;20.00;99.90;;;;;;5020520;28;20473;-84
2022/11/16 10:18:37;;;;;;;4.82;1.20;;;20.10;99.90;;;;;;5012900;28;20026;-82
2022/11/16 10:21:36;;;;;;;6.05;1.45;;;20.20;99.90;;;;;;5028233;28;20130;-83
2022/11/16 10:24:30;;;;;;;8.55;1.73;;;20.20;99.90;;;;;;5013949;28;20050;-84
2022/11/16 10:27:37;;;;;;;5.78;1.52;;;19.90;99.90;;;;;;5026867;28;20453;-83
2022/11/16 10:30:16;;;;;;;7.88;1.40;;;19.80;99.90;;;;;;5011843;28;20072;-85
2022/11/16 10:32:53;;;;;;;5.70;1.38;;;19.90;99.90;;;;;;5013281;28;21013;-83
2022/11/16 10:35:41;;;;;;;5.43;1.33;;;20.10;99.90;;;;;;5030917;28;20123;-83
2022/11/16 10:38:33;;;;;;;6.13;2.10;;;20.20;99.90;;;;;;5009387;28;20036;-83
2022/11/16 10:41:36;;;;;;;4.25;1.05;;;20.40;99.90;;;;;;5027659;28;20036;-84
2022/11/16 10:44:09;;;;;;;5.22;1.35;;;20.40;99.90;;;;;;5025571;28;20440;-84
2022/11/16 10:46:43;;;;;;;;;;;20.20;99.90;;;;;;5015642;28;20026;-83
2022/11/16 10:49:17;;;;;;;4.15;1.00;;;20.00;99.90;;;;;;5012720;28;20345;-85
2022/11/16 10:51:56;;;;;;;5.50;1.27;;;20.20;99.90;;;;;;5008714;28;20037;-84
2022/11/16 10:54:41;;;;;;;5.82;1.23;;;20.30;99.90;;;;;;5030444;28;20033;-84
2022/11/16 10:57:12;;;;;;;5.05;1.00;;;20.30;99.90;;;;;;5001635;28;20032;-84
2022/11/16 10:59:54;;;;;;;6.47;1.30;;;20.20;99.90;;;;;;5007284;28;20397;-86
2022/11/16 11:02:48;;;;;;;;;;;;;;;;;;;;;
2022/11/16 11:05:37;;;;;;;5.22;1.10;;;20.50;99.90;;;;;;5028844;28;20022;-84
2022/11/16 11:08:26;;;;;;;5.18;1.33;;;20.40;99.90;;;;;;5021460;28;20040;-83
2022/11/16 11:14:32;;;;;;;4.90;1.10;;;20.20;99.90;;;;;;5024310;28;20102;-84
2022/11/16 11:17:10;;;;;;;5.00;1.27;;;20.50;99.90;;;;;;4976962;28;20029;-85
2022/11/16 11:19:45;;;;;;;4.80;1.10;;;20.70;99.90;;;;;;4993386;28;20054;-83
2022/11/16 11:22:36;;;;;;;6.07;1.42;;;20.80;99.90;;;;;;4986402;28;20046;-84
2022/11/16 11:25:09;;;;;;;3.65;1.10;;;20.90;99.90;;;;;;4972162;28;20466;-85
2022/11/16 11:28:15;;;;;;;4.85;1.27;;;20.70;99.90;;;;;;4980961;28;20034;-84
2022/11/16 11:30:51;;;;;;;5.00;1.70;;;20.90;99.90;;;;;;4990502;28;20033;-86
2022/11/16 11:33:22;;;;;;;4.95;1.55;;;20.90;99.90;;;;;;4986140;28;20395;-84
2022/11/16 11:36:39;;;;;;;3.53;1.58;;;20.60;99.90;;;;;;4987248;28;20014;-86
2022/11/16 11:39:31;;;;;;;5.95;1.83;;;20.70;99.90;;;;;;4985802;28;20074;-82
2022/11/16 11:42:23;;;;;;;12.90;2.63;;;21.00;99.90;;;;;;4993494;28;20145;-83
2022/11/16 11:44:59;;;;;;;6.05;2.08;;;21.00;99.90;;;;;;4992147;28;20474;-82
2022/11/16 11:47:30;;;;;;;6.57;1.92;;;21.20;99.90;;;;;;5010475;28;20480;-81
2022/11/16 11:50:19;;;;;;;5.90;1.77;;;21.30;99.90;;;;;;4996122;28;20496;-83
2022/11/16 11:53:29;;;;;;;5.35;1.83;;;21.50;99.90;;;;;;4993609;28;20041;-82
2022/11/16 11:55:57;;;;;;;6.50;1.90;;;21.40;99.90;;;;;;4993494;28;20018;-82
2022/11/16 11:58:27;;;;;;;5.55;1.90;;;20.80;99.90;;;;;;5016184;28;20030;-83
2022/11/16 12:01:48;;;;;;;5.80;1.92;;;19.40;99.90;;;;;;4994330;28;20060;-83
2022/11/16 12:04:57;;;;;;;6.78;1.80;;;17.80;99.90;;;;;;4986175;28;20041;-84
2022/11/16 12:07:26;;;;;;;5.97;1.63;;;16.60;99.90;;;;;;4985475;28;20377;-83
2022/11/16 12:10:17;;;;;;;5.70;1.80;;;15.90;99.90;;;;;;4987147;28;20018;-82
2022/11/16 12:13:40;;;;;;;6.30;1.77;;;15.50;99.90;;;;;;4984169;28;20026;-83
2022/11/16 12:16:42;;;;;;;5.72;1.48;;;15.20;99.90;;;;;;4939709;29;20023;-84
2022/11/16 12:19:07;;;;;;;6.22;1.63;;;15.20;99.90;;;;;;4986984;28;20049;-82
2022/11/16 12:22:08;;;;;;;5.57;1.83;;;15.10;99.90;;;;;;5028864;28;20477;-82
2022/11/16 12:24:52;;;;;;;5.05;1.35;;;15.10;99.90;;;;;;4966692;28;20061;-82
2022/11/16 12:27:33;;;;;;;3.80;1.00;;;15.10;99.90;;;;;;5013661;28;20083;-82
2022/11/16 12:30:08;;;;;;;4.95;1.55;;;15.00;99.90;;;;;;5007893;28;20029;-88
2022/11/16 12:33:15;;;;;;;4.57;1.50;;;14.90;99.90;;;;;;5010777;28;20014;-82
2022/11/16 12:35:50;;;;;;;3.33;1.45;;;14.90;99.90;;;;;;5010743;28;20038;-82
2022/11/16 12:38:18;;;;;;;5.88;1.55;;;14.80;99.90;;;;;;5000003;28;20033;-82
2022/11/16 12:41:25;;;;;;;6.55;1.40;;;14.90;99.90;;;;;;5011138;28;20029;-81
2022/11/16 12:44:11;;;;;;;6.82;1.45;;;14.90;99.90;;;;;;4989433;28;20064;-85
2022/11/16 12:46:58;;;;;;;6.63;1.70;;;15.00;99.90;;;;;;5011426;28;20049;-83
2022/11/16 12:49:32;;;;;;;4.60;1.35;;;15.30;99.90;;;;;;5018261;28;20057;-81
2022/11/16 12:52:25;;;;;;;5.90;1.05;;;16.40;99.90;;;;;;5022844;28;20532;-82
2022/11/16 12:55:00;;;;;;;3.78;1.25;;;17.70;99.90;;;;;;4997089;28;20069;-82
2022/11/16 12:57:52;;;;;;;4.78;0.93;;;18.60;99.90;;;;;;4997102;28;20037;-82
2022/11/16 13:00:19;;;;;;;5.65;1.50;;;19.20;99.90;;;;;;5010744;28;20061;-82
2022/11/16 13:02:50;;;;;;;4.68;1.00;;;19.10;99.90;;;;;;5026063;28;20053;-83
2022/11/16 13:05:19;;;;;;;2.35;0.85;;;19.30;99.90;;;;;;5027849;28;20505;-81
2022/11/16 13:07:53;;;;;;;3.97;0.90;;;18.80;99.90;;;;;;4997882;28;20037;-81
2022/11/16 13:10:22;;;;;;;2.60;0.73;;;18.90;99.90;;;;;;5003880;28;20021;-82
2022/11/16 13:12:52;;;;;;;4.68;1.30;;;19.10;99.90;;;;;;4999745;28;20536;-82
2022/11/16 13:15:20;;;;;;;3.30;1.17;;;19.20;99.90;;;;;;5027517;28;20037;-83
2022/11/16 13:17:54;;;;;;;5.13;0.90;;;19.20;99.90;;;;;;4997303;28;20026;-82
2022/11/16 13:20:29;;;;;;;5.32;1.08;;;19.40;99.90;;;;;;5000708;28;20062;-82
2022/11/16 13:23:10;;;;;;;5.03;1.50;;;19.60;99.90;;;;;;5003406;28;20048;-84
2022/11/16 13:25:47;;;;;;;4.60;1.00;;;19.60;99.90;;;;;;5011602;28;20041;-82
2022/11/16 13:28:22;;;;;;;2.95;0.90;;;19.60;99.90;;;;;;5028758;28;20029;-81
2022/11/16 13:31:08;;;;;;;3.78;0.85;;;19.70;99.90;;;;;;5012987;28;20120;-83
2022/11/16 13:33:51;;;;;;;2.28;0.63;;;19.10;99.90;;;;;;5008533;28;20030;-82
2022/11/16 13:36:45;;;;;;;4.20;1.00;;;18.10;99.90;;;;;;5014438;28;20029;-81
2022/11/16 13:39:16;;;;;;;5.32;1.20;;;17.00;99.90;;;;;;5001705;28;20530;-82
2022/11/16 13:41:44;;;;;;;4.07;1.00;;;16.10;99.90;;;;;;5005437;28;20508;-81
2022/11/16 13:44:24;;;;;;;5.43;0.82;;;15.50;99.90;;;;;;5031001;28;20469;-82
2022/11/16 13:46:51;;;;;;;4.05;0.98;;;15.20;99.90;;;;;;5021454;28;20030;-81
2022/11/16 13:49:29;;;;;;;4.20;0.82;;;14.90;99.90;;;;;;5012917;28;20022;-81
2022/11/16 13:51:58;;;;;;;5.07;0.82;;;14.80;99.90;;;;;;5011639;28;20029;-82
2022/11/16 13:54:40;;;;;;;3.95;0.90;;;14.50;99.90;;;;;;5009598;28;20026;-83
2022/11/16 13:57:28;;;;;;;5.40;0.88;;;14.50;99.90;;;;;;5004272;28;20137;-82
2022/11/16 14:00:21;;;;;;;5.55;0.80;;;14.50;99.90;;;;;;4995279;28;20038;-81
2022/11/16 14:03:06;;;;;;;2.45;0.77;;;14.50;99.90;;;;;;4997801;28;20043;-82
2022/11/16 14:05:55;;;;;;;3.40;0.63;;;14.40;99.90;;;;;;5007929;28;20028;-82
2022/11/16 14:08:26;;;;;;;4.38;1.20;;;14.40;99.90;;;;;;5010745;28;20032;-82
2022/11/16 14:10:52;;;;;;;4.70;0.95;;;14.30;99.90;;;;;;5011404;28;20136;-82
2022/11/16 14:13:45;;;;;;;4.60;0.85;;;14.30;99.90;;;;;;5008938;28;20025;-81
2022/11/16 14:16:20;;;;;;;3.20;0.80;;;14.40;99.90;;;;;;5000181;28;20032;-83
2022/11/16 14:18:54;;;;;;;3.80;0.77;;;14.40;99.90;;;;;;4999752;28;20531;-82
2022/11/16 14:21:45;;;;;;;3.85;0.90;;;14.40;99.90;;;;;;5011205;28;20045;-81
2022/11/16 14:24:32;;;;;;;3.92;1.30;;;14.40;99.90;;;;;;5022227;28;20065;-81
2022/11/16 14:27:14;;;;;;;3.55;0.80;;;14.30;99.90;;;;;;5013987;28;20389;-84